Terminal Aerodrome Forecast
Issued by NWS Mt. Holly, NJ

Current Version | Previous Version | Text Only | Print | Product List | Glossary On
Versions: 1 2 3 4 5 6 7 8 9 10 11 12 13
000
FTUS41 KPHI 230500
TAFACY
TAF
KACY 230540Z 2306/2406 22008KT P6SM OVC110
     FM231200 21008KT P6SM SCT100
     FM232100 16005KT P6SM SCT040
     FM240200 15007KT 4SM -RA BR OVC015
     FM240400 15010G20KT 5SM -RA BR OVC007=

USA.gov is the U.S. government's official web portal to all federal, state and local government web resources and services.